sensor_id;sensor_type;location;lat;lon;timestamp;P1;durP1;ratioP1;P2;durP2;ratioP2
50355;SDS011;36264;51.296;-0.602;2023-06-14T00:02:05;6.10;;;2.90;;
50355;SDS011;36264;51.296;-0.602;2023-06-14T00:04:33;3.72;;;2.47;;
50355;SDS011;36264;51.296;-0.602;2023-06-14T00:06:59;4.30;;;2.58;;
50355;SDS011;36264;51.296;-0.602;2023-06-14T00:09:25;4.10;;;2.67;;
50355;SDS011;36264;51.296;-0.602;2023-06-14T00:11:50;5.68;;;2.72;;
50355;SDS011;36264;51.296;-0.602;2023-06-14T00:14:15;4.28;;;2.83;;
50355;SDS011;36264;51.296;-0.602;2023-06-14T00:16:41;4.72;;;3.10;;
50355;SDS011;36264;51.296;-0.602;2023-06-14T00:19:09;5.00;;;2.70;;
50355;SDS011;36264;51.296;-0.602;2023-06-14T00:21:36;4.40;;;2.53;;
50355;SDS011;36264;51.296;-0.602;2023-06-14T00:24:02;4.28;;;2.50;;
50355;SDS011;36264;51.296;-0.602;2023-06-14T00:26:29;4.03;;;2.60;;
50355;SDS011;36264;51.296;-0.602;2023-06-14T00:28:54;4.78;;;2.90;;
50355;SDS011;36264;51.296;-0.602;2023-06-14T00:31:21;3.97;;;2.53;;
50355;SDS011;36264;51.296;-0.602;2023-06-14T00:33:47;5.07;;;2.70;;
50355;SDS011;36264;51.296;-0.602;2023-06-14T00:36:12;4.32;;;2.65;;
50355;SDS011;36264;51.296;-0.602;2023-06-14T00:38:38;6.38;;;2.55;;
50355;SDS011;36264;51.296;-0.602;2023-06-14T00:41:03;3.97;;;2.38;;
50355;SDS011;36264;51.296;-0.602;2023-06-14T00:43:28;4.57;;;2.47;;
50355;SDS011;36264;51.296;-0.602;2023-06-14T00:45:54;4.00;;;2.47;;
50355;SDS011;36264;51.296;-0.602;2023-06-14T00:48:19;4.55;;;2.60;;
50355;SDS011;36264;51.296;-0.602;2023-06-14T00:50:45;4.55;;;2.60;;
50355;SDS011;36264;51.296;-0.602;2023-06-14T00:53:17;4.13;;;2.60;;
50355;SDS011;36264;51.296;-0.602;2023-06-14T00:55:43;4.03;;;2.40;;
50355;SDS011;36264;51.296;-0.602;2023-06-14T00:58:09;4.25;;;2.70;;
50355;SDS011;36264;51.296;-0.602;2023-06-14T01:00:35;4.38;;;2.35;;
50355;SDS011;36264;51.296;-0.602;2023-06-14T01:03:01;4.03;;;2.50;;
50355;SDS011;36264;51.296;-0.602;2023-06-14T01:05:27;4.47;;;2.85;;
50355;SDS011;36264;51.296;-0.602;2023-06-14T01:11:05;4.13;;;2.58;;
50355;SDS011;36264;51.296;-0.602;2023-06-14T01:16:02;3.60;;;2.20;;
50355;SDS011;36264;51.296;-0.602;2023-06-14T01:18:30;4.05;;;2.40;;
50355;SDS011;36264;51.296;-0.602;2023-06-14T01:20:56;3.95;;;2.33;;
50355;SDS011;36264;51.296;-0.602;2023-06-14T01:23:22;5.65;;;2.80;;
50355;SDS011;36264;51.296;-0.602;2023-06-14T01:25:48;5.18;;;2.88;;
50355;SDS011;36264;51.296;-0.602;2023-06-14T01:28:18;4.68;;;2.65;;
50355;SDS011;36264;51.296;-0.602;2023-06-14T01:30:46;4.82;;;2.70;;
50355;SDS011;36264;51.296;-0.602;2023-06-14T01:33:24;4.72;;;2.72;;
50355;SDS011;36264;51.296;-0.602;2023-06-14T01:35:52;5.13;;;2.60;;
50355;SDS011;36264;51.296;-0.602;2023-06-14T01:38:20;5.78;;;3.20;;
50355;SDS011;36264;51.296;-0.602;2023-06-14T01:40:48;4.90;;;2.92;;
50355;SDS011;36264;51.296;-0.602;2023-06-14T01:43:15;5.57;;;2.70;;
50355;SDS011;36264;51.296;-0.602;2023-06-14T01:45:42;4.85;;;2.50;;
50355;SDS011;36264;51.296;-0.602;2023-06-14T01:48:09;4.25;;;2.55;;
50355;SDS011;36264;51.296;-0.602;2023-06-14T01:50:34;4.68;;;2.65;;
50355;SDS011;36264;51.296;-0.602;2023-06-14T01:53:00;5.80;;;2.58;;
50355;SDS011;36264;51.296;-0.602;2023-06-14T01:55:26;6.03;;;3.13;;
50355;SDS011;36264;51.296;-0.602;2023-06-14T01:57:51;6.38;;;2.95;;
50355;SDS011;36264;51.296;-0.602;2023-06-14T02:00:17;6.15;;;3.08;;
50355;SDS011;36264;51.296;-0.602;2023-06-14T02:02:43;6.43;;;2.90;;
50355;SDS011;36264;51.296;-0.602;2023-06-14T02:05:10;5.93;;;2.90;;
50355;SDS011;36264;51.296;-0.602;2023-06-14T02:07:36;7.05;;;2.70;;
50355;SDS011;36264;51.296;-0.602;2023-06-14T02:10:02;5.22;;;2.50;;
50355;SDS011;36264;51.296;-0.602;2023-06-14T02:12:28;3.83;;;2.25;;
50355;SDS011;36264;51.296;-0.602;2023-06-14T02:14:53;5.75;;;2.72;;
50355;SDS011;36264;51.296;-0.602;2023-06-14T02:17:19;4.57;;;2.25;;
50355;SDS011;36264;51.296;-0.602;2023-06-14T02:19:45;7.97;;;2.38;;
50355;SDS011;36264;51.296;-0.602;2023-06-14T02:22:10;4.05;;;2.45;;
50355;SDS011;36264;51.296;-0.602;2023-06-14T02:24:36;4.10;;;1.98;;
50355;SDS011;36264;51.296;-0.602;2023-06-14T02:27:01;3.97;;;2.00;;
50355;SDS011;36264;51.296;-0.602;2023-06-14T02:29:27;2.97;;;1.80;;
50355;SDS011;36264;51.296;-0.602;2023-06-14T02:31:52;3.25;;;1.77;;
50355;SDS011;36264;51.296;-0.602;2023-06-14T02:34:18;2.63;;;1.70;;
50355;SDS011;36264;51.296;-0.602;2023-06-14T02:36:44;2.75;;;1.77;;
50355;SDS011;36264;51.296;-0.602;2023-06-14T02:39:10;3.53;;;2.10;;
50355;SDS011;36264;51.296;-0.602;2023-06-14T02:41:36;3.28;;;2.00;;
50355;SDS011;36264;51.296;-0.602;2023-06-14T02:44:01;4.30;;;2.10;;
50355;SDS011;36264;51.296;-0.602;2023-06-14T02:46:27;4.88;;;1.77;;
50355;SDS011;36264;51.296;-0.602;2023-06-14T02:48:52;3.72;;;1.90;;
50355;SDS011;36264;51.296;-0.602;2023-06-14T02:51:18;5.00;;;2.05;;
50355;SDS011;36264;51.296;-0.602;2023-06-14T02:53:43;7.43;;;2.20;;
50355;SDS011;36264;51.296;-0.602;2023-06-14T02:56:09;3.35;;;1.95;;
50355;SDS011;36264;51.296;-0.602;2023-06-14T02:58:36;3.65;;;2.05;;
50355;SDS011;36264;51.296;-0.602;2023-06-14T03:01:02;3.63;;;2.00;;
50355;SDS011;36264;51.296;-0.602;2023-06-14T03:03:28;3.47;;;1.90;;
50355;SDS011;36264;51.296;-0.602;2023-06-14T03:05:53;3.25;;;1.85;;
50355;SDS011;36264;51.296;-0.602;2023-06-14T03:08:19;3.63;;;1.88;;
50355;SDS011;36264;51.296;-0.602;2023-06-14T03:10:48;3.10;;;1.90;;
50355;SDS011;36264;51.296;-0.602;2023-06-14T03:13:14;2.83;;;1.70;;
50355;SDS011;36264;51.296;-0.602;2023-06-14T03:15:43;5.03;;;2.40;;
50355;SDS011;36264;51.296;-0.602;2023-06-14T03:18:10;4.65;;;2.13;;
50355;SDS011;36264;51.296;-0.602;2023-06-14T03:20:37;4.70;;;2.00;;
50355;SDS011;36264;51.296;-0.602;2023-06-14T03:23:02;3.90;;;1.90;;
50355;SDS011;36264;51.296;-0.602;2023-06-14T03:25:28;3.35;;;1.83;;
50355;SDS011;36264;51.296;-0.602;2023-06-14T03:27:57;6.00;;;2.50;;
50355;SDS011;36264;51.296;-0.602;2023-06-14T03:30:23;4.47;;;2.28;;
50355;SDS011;36264;51.296;-0.602;2023-06-14T03:32:48;3.35;;;1.88;;
50355;SDS011;36264;51.296;-0.602;2023-06-14T03:35:15;4.93;;;2.65;;
50355;SDS011;36264;51.296;-0.602;2023-06-14T03:37:43;5.70;;;2.70;;
50355;SDS011;36264;51.296;-0.602;2023-06-14T03:40:09;4.13;;;2.03;;
50355;SDS011;36264;51.296;-0.602;2023-06-14T03:42:36;3.65;;;2.15;;
50355;SDS011;36264;51.296;-0.602;2023-06-14T03:45:01;4.05;;;2.08;;
50355;SDS011;36264;51.296;-0.602;2023-06-14T03:47:26;4.38;;;2.22;;
50355;SDS011;36264;51.296;-0.602;2023-06-14T03:49:52;3.97;;;2.03;;
50355;SDS011;36264;51.296;-0.602;2023-06-14T03:52:17;4.20;;;1.90;;
50355;SDS011;36264;51.296;-0.602;2023-06-14T03:54:43;3.28;;;1.83;;
50355;SDS011;36264;51.296;-0.602;2023-06-14T03:57:09;4.43;;;2.10;;
50355;SDS011;36264;51.296;-0.602;2023-06-14T03:59:35;6.03;;;2.50;;
50355;SDS011;36264;51.296;-0.602;2023-06-14T04:02:01;4.63;;;2.40;;
50355;SDS011;36264;51.296;-0.602;2023-06-14T04:04:27;4.78;;;2.33;;
50355;SDS011;36264;51.296;-0.602;2023-06-14T04:06:57;4.18;;;2.13;;
50355;SDS011;36264;51.296;-0.602;2023-06-14T04:09:24;3.67;;;2.17;;
50355;SDS011;36264;51.296;-0.602;2023-06-14T04:11:50;3.40;;;1.92;;
50355;SDS011;36264;51.296;-0.602;2023-06-14T04:14:18;3.80;;;1.98;;
50355;SDS011;36264;51.296;-0.602;2023-06-14T04:16:46;3.13;;;1.90;;
50355;SDS011;36264;51.296;-0.602;2023-06-14T04:19:13;4.40;;;2.17;;
50355;SDS011;36264;51.296;-0.602;2023-06-14T04:21:38;3.67;;;1.80;;
50355;SDS011;36264;51.296;-0.602;2023-06-14T04:24:04;3.63;;;2.05;;
50355;SDS011;36264;51.296;-0.602;2023-06-14T04:26:29;3.00;;;1.90;;
50355;SDS011;36264;51.296;-0.602;2023-06-14T04:28:58;3.72;;;1.85;;
50355;SDS011;36264;51.296;-0.602;2023-06-14T04:31:28;4.20;;;2.35;;
50355;SDS011;36264;51.296;-0.602;2023-06-14T04:33:54;5.75;;;2.30;;
50355;SDS011;36264;51.296;-0.602;2023-06-14T04:36:20;5.47;;;2.10;;
50355;SDS011;36264;51.296;-0.602;2023-06-14T04:38:46;5.10;;;2.13;;
50355;SDS011;36264;51.296;-0.602;2023-06-14T04:41:11;3.90;;;1.92;;
50355;SDS011;36264;51.296;-0.602;2023-06-14T04:43:37;3.90;;;1.83;;
50355;SDS011;36264;51.296;-0.602;2023-06-14T04:46:04;3.00;;;1.98;;
50355;SDS011;36264;51.296;-0.602;2023-06-14T04:48:30;2.45;;;1.70;;
50355;SDS011;36264;51.296;-0.602;2023-06-14T04:50:56;4.47;;;1.70;;
50355;SDS011;36264;51.296;-0.602;2023-06-14T04:53:22;3.33;;;2.00;;
50355;SDS011;36264;51.296;-0.602;2023-06-14T04:55:48;4.63;;;2.20;;
50355;SDS011;36264;51.296;-0.602;2023-06-14T04:58:14;3.50;;;2.05;;
50355;SDS011;36264;51.296;-0.602;2023-06-14T05:00:39;4.05;;;2.03;;
50355;SDS011;36264;51.296;-0.602;2023-06-14T05:03:04;3.65;;;2.08;;
50355;SDS011;36264;51.296;-0.602;2023-06-14T05:05:31;4.65;;;2.15;;
50355;SDS011;36264;51.296;-0.602;2023-06-14T05:07:57;3.53;;;2.20;;
50355;SDS011;36264;51.296;-0.602;2023-06-14T05:10:22;6.13;;;2.63;;
50355;SDS011;36264;51.296;-0.602;2023-06-14T05:12:48;3.42;;;1.88;;
50355;SDS011;36264;51.296;-0.602;2023-06-14T05:15:14;4.63;;;2.15;;
50355;SDS011;36264;51.296;-0.602;2023-06-14T05:17:40;3.90;;;2.17;;
50355;SDS011;36264;51.296;-0.602;2023-06-14T05:20:06;4.57;;;2.40;;
50355;SDS011;36264;51.296;-0.602;2023-06-14T05:22:32;5.50;;;2.25;;
50355;SDS011;36264;51.296;-0.602;2023-06-14T05:24:57;6.30;;;2.60;;
50355;SDS011;36264;51.296;-0.602;2023-06-14T05:27:22;5.32;;;2.30;;
50355;SDS011;36264;51.296;-0.602;2023-06-14T05:29:49;6.15;;;2.95;;
50355;SDS011;36264;51.296;-0.602;2023-06-14T05:32:15;8.25;;;2.30;;
50355;SDS011;36264;51.296;-0.602;2023-06-14T05:34:41;8.10;;;2.85;;
50355;SDS011;36264;51.296;-0.602;2023-06-14T05:37:07;7.05;;;2.47;;
50355;SDS011;36264;51.296;-0.602;2023-06-14T05:39:32;3.97;;;2.05;;
50355;SDS011;36264;51.296;-0.602;2023-06-14T05:41:57;5.57;;;2.42;;
50355;SDS011;36264;51.296;-0.602;2023-06-14T05:44:23;7.53;;;2.85;;
50355;SDS011;36264;51.296;-0.602;2023-06-14T05:46:48;7.43;;;2.58;;
50355;SDS011;36264;51.296;-0.602;2023-06-14T05:49:13;4.78;;;2.40;;
50355;SDS011;36264;51.296;-0.602;2023-06-14T05:51:39;6.03;;;2.38;;
50355;SDS011;36264;51.296;-0.602;2023-06-14T05:54:04;4.82;;;2.58;;
50355;SDS011;36264;51.296;-0.602;2023-06-14T05:56:30;5.50;;;2.60;;
50355;SDS011;36264;51.296;-0.602;2023-06-14T05:58:55;4.28;;;2.10;;
50355;SDS011;36264;51.296;-0.602;2023-06-14T06:01:20;4.75;;;2.35;;
50355;SDS011;36264;51.296;-0.602;2023-06-14T06:03:47;5.88;;;2.72;;
50355;SDS011;36264;51.296;-0.602;2023-06-14T06:06:12;5.82;;;2.70;;
50355;SDS011;36264;51.296;-0.602;2023-06-14T06:08:38;4.15;;;2.33;;
50355;SDS011;36264;51.296;-0.602;2023-06-14T06:11:04;7.20;;;3.00;;
50355;SDS011;36264;51.296;-0.602;2023-06-14T06:13:29;4.63;;;2.55;;
50355;SDS011;36264;51.296;-0.602;2023-06-14T06:15:54;7.60;;;2.30;;
50355;SDS011;36264;51.296;-0.602;2023-06-14T06:18:21;4.50;;;2.28;;
50355;SDS011;36264;51.296;-0.602;2023-06-14T06:20:46;6.47;;;2.72;;
50355;SDS011;36264;51.296;-0.602;2023-06-14T06:23:12;5.53;;;2.65;;
50355;SDS011;36264;51.296;-0.602;2023-06-14T06:25:37;6.28;;;2.20;;
50355;SDS011;36264;51.296;-0.602;2023-06-14T06:28:03;6.97;;;2.78;;
50355;SDS011;36264;51.296;-0.602;2023-06-14T06:30:28;5.43;;;2.60;;
50355;SDS011;36264;51.296;-0.602;2023-06-14T06:32:53;4.47;;;2.42;;
50355;SDS011;36264;51.296;-0.602;2023-06-14T06:35:20;5.55;;;2.58;;
50355;SDS011;36264;51.296;-0.602;2023-06-14T06:37:46;5.75;;;2.65;;
50355;SDS011;36264;51.296;-0.602;2023-06-14T06:40:11;5.60;;;2.50;;
50355;SDS011;36264;51.296;-0.602;2023-06-14T06:42:37;8.63;;;2.90;;
50355;SDS011;36264;51.296;-0.602;2023-06-14T06:45:02;5.07;;;2.42;;
50355;SDS011;36264;51.296;-0.602;2023-06-14T06:47:28;6.50;;;2.33;;
50355;SDS011;36264;51.296;-0.602;2023-06-14T06:49:54;7.07;;;2.70;;
50355;SDS011;36264;51.296;-0.602;2023-06-14T06:52:19;6.40;;;2.50;;
50355;SDS011;36264;51.296;-0.602;2023-06-14T06:54:44;5.80;;;2.35;;
50355;SDS011;36264;51.296;-0.602;2023-06-14T06:57:10;6.13;;;2.55;;
50355;SDS011;36264;51.296;-0.602;2023-06-14T06:59:36;7.97;;;2.65;;
50355;SDS011;36264;51.296;-0.602;2023-06-14T07:02:01;4.95;;;2.60;;
50355;SDS011;36264;51.296;-0.602;2023-06-14T07:04:26;6.43;;;2.95;;
50355;SDS011;36264;51.296;-0.602;2023-06-14T07:06:52;5.95;;;3.00;;
50355;SDS011;36264;51.296;-0.602;2023-06-14T07:09:17;4.43;;;2.50;;
50355;SDS011;36264;51.296;-0.602;2023-06-14T07:11:44;7.97;;;3.25;;
50355;SDS011;36264;51.296;-0.602;2023-06-14T07:14:10;5.93;;;2.70;;
50355;SDS011;36264;51.296;-0.602;2023-06-14T07:16:36;6.97;;;3.08;;
50355;SDS011;36264;51.296;-0.602;2023-06-14T07:19:02;4.93;;;3.00;;
50355;SDS011;36264;51.296;-0.602;2023-06-14T07:21:28;10.90;;;3.17;;
50355;SDS011;36264;51.296;-0.602;2023-06-14T07:23:54;7.18;;;3.10;;
50355;SDS011;36264;51.296;-0.602;2023-06-14T07:26:19;9.23;;;3.22;;
50355;SDS011;36264;51.296;-0.602;2023-06-14T07:28:45;7.55;;;2.95;;
50355;SDS011;36264;51.296;-0.602;2023-06-14T07:31:11;4.70;;;2.30;;
50355;SDS011;36264;51.296;-0.602;2023-06-14T07:33:37;7.25;;;2.85;;
50355;SDS011;36264;51.296;-0.602;2023-06-14T07:36:03;5.50;;;2.92;;
50355;SDS011;36264;51.296;-0.602;2023-06-14T07:38:29;5.22;;;2.70;;
50355;SDS011;36264;51.296;-0.602;2023-06-14T07:40:54;7.93;;;2.88;;
50355;SDS011;36264;51.296;-0.602;2023-06-14T07:43:19;4.72;;;2.70;;
50355;SDS011;36264;51.296;-0.602;2023-06-14T07:45:45;11.48;;;2.75;;
50355;SDS011;36264;51.296;-0.602;2023-06-14T07:48:11;7.40;;;2.75;;
50355;SDS011;36264;51.296;-0.602;2023-06-14T07:50:36;7.15;;;2.97;;
50355;SDS011;36264;51.296;-0.602;2023-06-14T07:53:02;8.20;;;3.25;;
50355;SDS011;36264;51.296;-0.602;2023-06-14T07:55:27;6.45;;;2.40;;
50355;SDS011;36264;51.296;-0.602;2023-06-14T07:57:53;5.47;;;2.78;;
50355;SDS011;36264;51.296;-0.602;2023-06-14T08:00:19;6.43;;;3.08;;
50355;SDS011;36264;51.296;-0.602;2023-06-14T08:02:45;6.63;;;2.55;;
50355;SDS011;36264;51.296;-0.602;2023-06-14T08:05:11;6.20;;;3.40;;
50355;SDS011;36264;51.296;-0.602;2023-06-14T08:07:37;4.55;;;2.63;;
50355;SDS011;36264;51.296;-0.602;2023-06-14T08:10:05;5.38;;;2.80;;
50355;SDS011;36264;51.296;-0.602;2023-06-14T08:12:31;6.05;;;2.60;;
50355;SDS011;36264;51.296;-0.602;2023-06-14T08:14:57;7.32;;;3.78;;
50355;SDS011;36264;51.296;-0.602;2023-06-14T08:17:22;6.93;;;3.20;;
50355;SDS011;36264;51.296;-0.602;2023-06-14T08:19:48;6.35;;;2.95;;
50355;SDS011;36264;51.296;-0.602;2023-06-14T08:22:13;7.63;;;3.17;;
50355;SDS011;36264;51.296;-0.602;2023-06-14T08:24:39;7.35;;;2.80;;
50355;SDS011;36264;51.296;-0.602;2023-06-14T08:27:05;6.05;;;3.05;;
50355;SDS011;36264;51.296;-0.602;2023-06-14T08:29:31;8.00;;;2.85;;
50355;SDS011;36264;51.296;-0.602;2023-06-14T08:31:56;6.22;;;3.10;;
50355;SDS011;36264;51.296;-0.602;2023-06-14T08:34:23;6.38;;;2.95;;
50355;SDS011;36264;51.296;-0.602;2023-06-14T08:36:49;6.30;;;3.38;;
50355;SDS011;36264;51.296;-0.602;2023-06-14T08:39:15;5.97;;;2.90;;
50355;SDS011;36264;51.296;-0.602;2023-06-14T08:41:41;7.78;;;3.10;;
50355;SDS011;36264;51.296;-0.602;2023-06-14T08:44:08;7.40;;;3.17;;
50355;SDS011;36264;51.296;-0.602;2023-06-14T08:46:33;5.25;;;2.53;;
50355;SDS011;36264;51.296;-0.602;2023-06-14T08:49:01;5.80;;;2.60;;
50355;SDS011;36264;51.296;-0.602;2023-06-14T08:51:27;6.25;;;2.58;;
50355;SDS011;36264;51.296;-0.602;2023-06-14T08:53:59;4.45;;;2.38;;
50355;SDS011;36264;51.296;-0.602;2023-06-14T08:56:27;5.55;;;2.70;;
50355;SDS011;36264;51.296;-0.602;2023-06-14T08:58:54;5.43;;;2.80;;
50355;SDS011;36264;51.296;-0.602;2023-06-14T09:01:21;5.43;;;2.53;;
50355;SDS011;36264;51.296;-0.602;2023-06-14T09:03:48;7.65;;;3.38;;
50355;SDS011;36264;51.296;-0.602;2023-06-14T09:06:14;6.22;;;2.72;;
50355;SDS011;36264;51.296;-0.602;2023-06-14T09:08:41;7.47;;;3.63;;
50355;SDS011;36264;51.296;-0.602;2023-06-14T09:11:09;6.57;;;2.85;;
50355;SDS011;36264;51.296;-0.602;2023-06-14T09:13:37;7.18;;;3.13;;
50355;SDS011;36264;51.296;-0.602;2023-06-14T09:16:02;4.25;;;2.72;;
50355;SDS011;36264;51.296;-0.602;2023-06-14T09:18:42;7.60;;;3.50;;
50355;SDS011;36264;51.296;-0.602;2023-06-14T09:21:12;5.57;;;3.17;;
50355;SDS011;36264;51.296;-0.602;2023-06-14T09:23:40;4.90;;;2.53;;
50355;SDS011;36264;51.296;-0.602;2023-06-14T09:26:13;8.60;;;3.63;;
50355;SDS011;36264;51.296;-0.602;2023-06-14T09:28:45;5.95;;;2.92;;
50355;SDS011;36264;51.296;-0.602;2023-06-14T09:31:17;5.30;;;2.83;;
50355;SDS011;36264;51.296;-0.602;2023-06-14T09:33:44;5.13;;;2.47;;
50355;SDS011;36264;51.296;-0.602;2023-06-14T09:38:54;7.65;;;3.97;;
50355;SDS011;36264;51.296;-0.602;2023-06-14T09:41:21;6.40;;;3.10;;
50355;SDS011;36264;51.296;-0.602;2023-06-14T09:43:59;5.63;;;3.10;;
50355;SDS011;36264;51.296;-0.602;2023-06-14T09:46:27;6.60;;;3.15;;
50355;SDS011;36264;51.296;-0.602;2023-06-14T09:48:53;6.38;;;2.75;;
50355;SDS011;36264;51.296;-0.602;2023-06-14T09:51:18;9.48;;;3.10;;
50355;SDS011;36264;51.296;-0.602;2023-06-14T09:53:46;7.72;;;3.38;;
50355;SDS011;36264;51.296;-0.602;2023-06-14T09:56:14;9.88;;;3.33;;
50355;SDS011;36264;51.296;-0.602;2023-06-14T09:58:48;7.45;;;3.92;;
50355;SDS011;36264;51.296;-0.602;2023-06-14T10:01:19;6.38;;;2.97;;
50355;SDS011;36264;51.296;-0.602;2023-06-14T10:03:45;7.13;;;3.03;;
50355;SDS011;36264;51.296;-0.602;2023-06-14T10:06:11;8.55;;;3.13;;
50355;SDS011;36264;51.296;-0.602;2023-06-14T10:08:37;6.30;;;3.65;;
50355;SDS011;36264;51.296;-0.602;2023-06-14T10:11:04;7.57;;;3.53;;
50355;SDS011;36264;51.296;-0.602;2023-06-14T10:13:31;7.68;;;4.00;;
50355;SDS011;36264;51.296;-0.602;2023-06-14T10:16:05;8.05;;;3.70;;
50355;SDS011;36264;51.296;-0.602;2023-06-14T10:18:35;10.68;;;3.58;;
50355;SDS011;36264;51.296;-0.602;2023-06-14T10:24:07;7.07;;;3.55;;
50355;SDS011;36264;51.296;-0.602;2023-06-14T10:26:38;11.15;;;3.92;;
50355;SDS011;36264;51.296;-0.602;2023-06-14T10:29:15;5.55;;;3.10;;
50355;SDS011;36264;51.296;-0.602;2023-06-14T10:34:07;5.20;;;2.92;;
50355;SDS011;36264;51.296;-0.602;2023-06-14T10:36:33;8.13;;;3.78;;
50355;SDS011;36264;51.296;-0.602;2023-06-14T10:39:06;6.85;;;3.22;;
50355;SDS011;36264;51.296;-0.602;2023-06-14T10:41:36;8.35;;;3.10;;
50355;SDS011;36264;51.296;-0.602;2023-06-14T10:44:10;5.45;;;3.00;;
50355;SDS011;36264;51.296;-0.602;2023-06-14T10:46:39;7.82;;;3.70;;
50355;SDS011;36264;51.296;-0.602;2023-06-14T10:49:38;6.05;;;3.30;;
50355;SDS011;36264;51.296;-0.602;2023-06-14T10:52:16;7.43;;;2.97;;
50355;SDS011;36264;51.296;-0.602;2023-06-14T10:55:02;6.28;;;2.78;;
50355;SDS011;36264;51.296;-0.602;2023-06-14T10:57:55;6.57;;;3.92;;
50355;SDS011;36264;51.296;-0.602;2023-06-14T11:00:23;8.02;;;4.20;;
50355;SDS011;36264;51.296;-0.602;2023-06-14T11:08:21;6.18;;;2.90;;
50355;SDS011;36264;51.296;-0.602;2023-06-14T11:11:17;6.23;;;2.97;;
50355;SDS011;36264;51.296;-0.602;2023-06-14T11:13:46;11.80;;;3.70;;
50355;SDS011;36264;51.296;-0.602;2023-06-14T11:16:15;6.07;;;3.15;;
50355;SDS011;36264;51.296;-0.602;2023-06-14T11:18:41;6.53;;;3.60;;
50355;SDS011;36264;51.296;-0.602;2023-06-14T11:21:09;4.35;;;2.95;;
50355;SDS011;36264;51.296;-0.602;2023-06-14T11:23:37;6.25;;;3.65;;
50355;SDS011;36264;51.296;-0.602;2023-06-14T11:26:02;10.55;;;4.30;;
50355;SDS011;36264;51.296;-0.602;2023-06-14T11:28:41;6.53;;;3.40;;
50355;SDS011;36264;51.296;-0.602;2023-06-14T11:31:06;5.90;;;3.25;;
50355;SDS011;36264;51.296;-0.602;2023-06-14T11:33:32;7.53;;;3.22;;
50355;SDS011;36264;51.296;-0.602;2023-06-14T11:36:01;4.97;;;2.67;;
50355;SDS011;36264;51.296;-0.602;2023-06-14T11:38:27;5.10;;;3.13;;
50355;SDS011;36264;51.296;-0.602;2023-06-14T11:40:52;6.10;;;3.40;;
50355;SDS011;36264;51.296;-0.602;2023-06-14T11:43:18;9.10;;;3.67;;
50355;SDS011;36264;51.296;-0.602;2023-06-14T11:45:43;7.28;;;3.30;;
50355;SDS011;36264;51.296;-0.602;2023-06-14T11:48:14;11.75;;;4.70;;
50355;SDS011;36264;51.296;-0.602;2023-06-14T11:50:40;6.03;;;3.45;;
50355;SDS011;36264;51.296;-0.602;2023-06-14T11:53:06;7.55;;;3.78;;
50355;SDS011;36264;51.296;-0.602;2023-06-14T11:55:36;5.33;;;3.50;;
50355;SDS011;36264;51.296;-0.602;2023-06-14T11:58:05;5.65;;;3.63;;
50355;SDS011;36264;51.296;-0.602;2023-06-14T12:00:31;5.38;;;3.15;;
50355;SDS011;36264;51.296;-0.602;2023-06-14T12:02:57;4.65;;;3.13;;
50355;SDS011;36264;51.296;-0.602;2023-06-14T12:05:22;4.90;;;2.90;;
50355;SDS011;36264;51.296;-0.602;2023-06-14T12:07:49;9.70;;;4.28;;
50355;SDS011;36264;51.296;-0.602;2023-06-14T12:10:15;10.32;;;3.88;;
50355;SDS011;36264;51.296;-0.602;2023-06-14T12:12:41;7.78;;;4.55;;
50355;SDS011;36264;51.296;-0.602;2023-06-14T12:15:07;5.72;;;3.50;;
50355;SDS011;36264;51.296;-0.602;2023-06-14T12:17:36;5.43;;;3.38;;
50355;SDS011;36264;51.296;-0.602;2023-06-14T12:20:06;7.53;;;3.53;;
50355;SDS011;36264;51.296;-0.602;2023-06-14T12:25:23;6.85;;;3.55;;
50355;SDS011;36264;51.296;-0.602;2023-06-14T12:27:52;5.50;;;3.38;;
50355;SDS011;36264;51.296;-0.602;2023-06-14T12:30:18;5.57;;;3.65;;
50355;SDS011;36264;51.296;-0.602;2023-06-14T12:32:43;5.35;;;3.22;;
50355;SDS011;36264;51.296;-0.602;2023-06-14T12:35:10;6.28;;;3.30;;
50355;SDS011;36264;51.296;-0.602;2023-06-14T12:37:35;6.28;;;3.75;;
50355;SDS011;36264;51.296;-0.602;2023-06-14T12:40:01;6.80;;;3.72;;
50355;SDS011;36264;51.296;-0.602;2023-06-14T12:42:31;4.80;;;3.47;;
50355;SDS011;36264;51.296;-0.602;2023-06-14T12:44:56;5.30;;;3.53;;
50355;SDS011;36264;51.296;-0.602;2023-06-14T12:47:21;5.88;;;3.65;;
50355;SDS011;36264;51.296;-0.602;2023-06-14T12:49:47;8.75;;;3.65;;
50355;SDS011;36264;51.296;-0.602;2023-06-14T12:52:12;5.00;;;3.25;;
50355;SDS011;36264;51.296;-0.602;2023-06-14T12:54:37;8.48;;;3.58;;
50355;SDS011;36264;51.296;-0.602;2023-06-14T12:57:04;5.80;;;3.70;;
50355;SDS011;36264;51.296;-0.602;2023-06-14T12:59:30;5.55;;;3.47;;
50355;SDS011;36264;51.296;-0.602;2023-06-14T13:01:59;5.20;;;3.83;;
50355;SDS011;36264;51.296;-0.602;2023-06-14T13:04:35;5.10;;;3.20;;
50355;SDS011;36264;51.296;-0.602;2023-06-14T13:07:00;4.82;;;3.20;;
50355;SDS011;36264;51.296;-0.602;2023-06-14T13:09:25;4.85;;;3.53;;
50355;SDS011;36264;51.296;-0.602;2023-06-14T13:11:51;6.22;;;3.30;;
50355;SDS011;36264;51.296;-0.602;2023-06-14T13:14:17;5.78;;;3.10;;
50355;SDS011;36264;51.296;-0.602;2023-06-14T13:16:42;4.32;;;3.00;;
50355;SDS011;36264;51.296;-0.602;2023-06-14T13:19:08;4.65;;;3.30;;
50355;SDS011;36264;51.296;-0.602;2023-06-14T13:21:33;5.10;;;3.47;;
50355;SDS011;36264;51.296;-0.602;2023-06-14T13:23:58;7.05;;;4.03;;
50355;SDS011;36264;51.296;-0.602;2023-06-14T13:26:24;6.43;;;3.83;;
50355;SDS011;36264;51.296;-0.602;2023-06-14T13:28:49;7.47;;;3.97;;
50355;SDS011;36264;51.296;-0.602;2023-06-14T13:31:16;5.90;;;3.63;;
50355;SDS011;36264;51.296;-0.602;2023-06-14T13:33:41;6.80;;;4.00;;
50355;SDS011;36264;51.296;-0.602;2023-06-14T13:36:07;6.50;;;3.60;;
50355;SDS011;36264;51.296;-0.602;2023-06-14T13:38:32;7.20;;;3.95;;
50355;SDS011;36264;51.296;-0.602;2023-06-14T13:40:57;5.65;;;3.47;;
50355;SDS011;36264;51.296;-0.602;2023-06-14T13:43:23;4.70;;;3.53;;
50355;SDS011;36264;51.296;-0.602;2023-06-14T13:45:48;4.60;;;3.40;;
50355;SDS011;36264;51.296;-0.602;2023-06-14T13:48:13;5.88;;;3.28;;
50355;SDS011;36264;51.296;-0.602;2023-06-14T13:50:39;6.32;;;3.78;;
50355;SDS011;36264;51.296;-0.602;2023-06-14T13:53:05;5.80;;;3.47;;
50355;SDS011;36264;51.296;-0.602;2023-06-14T13:55:30;7.22;;;3.83;;
50355;SDS011;36264;51.296;-0.602;2023-06-14T13:57:56;10.95;;;3.90;;
50355;SDS011;36264;51.296;-0.602;2023-06-14T14:00:22;5.78;;;3.60;;
50355;SDS011;36264;51.296;-0.602;2023-06-14T14:02:47;5.15;;;3.58;;
50355;SDS011;36264;51.296;-0.602;2023-06-14T14:05:15;5.43;;;3.55;;
50355;SDS011;36264;51.296;-0.602;2023-06-14T14:07:41;6.70;;;3.40;;
50355;SDS011;36264;51.296;-0.602;2023-06-14T14:10:07;7.28;;;3.53;;
50355;SDS011;36264;51.296;-0.602;2023-06-14T14:12:33;6.10;;;3.65;;
50355;SDS011;36264;51.296;-0.602;2023-06-14T14:14:58;7.05;;;3.35;;
50355;SDS011;36264;51.296;-0.602;2023-06-14T14:17:24;5.40;;;3.47;;
50355;SDS011;36264;51.296;-0.602;2023-06-14T14:19:50;5.28;;;3.47;;
50355;SDS011;36264;51.296;-0.602;2023-06-14T14:22:15;5.03;;;3.80;;
50355;SDS011;36264;51.296;-0.602;2023-06-14T14:24:40;4.55;;;3.85;;
50355;SDS011;36264;51.296;-0.602;2023-06-14T14:27:06;5.30;;;4.40;;
50355;SDS011;36264;51.296;-0.602;2023-06-14T14:29:32;5.60;;;4.75;;
50355;SDS011;36264;51.296;-0.602;2023-06-14T14:31:58;5.47;;;4.80;;
50355;SDS011;36264;51.296;-0.602;2023-06-14T14:34:24;9.48;;;6.20;;
50355;SDS011;36264;51.296;-0.602;2023-06-14T14:36:50;6.60;;;6.00;;
50355;SDS011;36264;51.296;-0.602;2023-06-14T14:39:15;6.85;;;6.25;;
50355;SDS011;36264;51.296;-0.602;2023-06-14T14:41:41;6.73;;;6.13;;
50355;SDS011;36264;51.296;-0.602;2023-06-14T14:44:06;6.30;;;5.70;;
50355;SDS011;36264;51.296;-0.602;2023-06-14T14:46:31;6.67;;;5.50;;
50355;SDS011;36264;51.296;-0.602;2023-06-14T14:48:58;7.40;;;4.70;;
50355;SDS011;36264;51.296;-0.602;2023-06-14T14:51:24;5.28;;;4.10;;
50355;SDS011;36264;51.296;-0.602;2023-06-14T14:53:49;5.10;;;3.58;;